PWSweather.com
Personal Weather Stations
Station Observations
THAIWX
Pa Daet, Chiang MaiTH 50100

Pa DaetChiang MaiTH 50100

Lat: 18.766158, Lon: 98.97553

Elevation: 1007

Station Type: LaCrosse WS2315

http://www.ThaiWx.yolasite.com/

High Low Average
Temperature 91.9°F33.3°C 81.9°F27.7°C 88.1°F31.2°C
Dew Point 76.9°F24.9°C 73.2°F22.9°C 74.4°F23.6°C
Winds 7.6 mph 12.2 kmh Calm Calm 2.0 mph S3.2 kmh S
Wind Gusts 17.2 mph27.7 kmh -- 5.0 mph8.0 kmh
Humidity 77% 56% 64%
Pressure 29.85 in1010.8 mb 29.72 in1006.4 mb -
Precipitation 0.12 in3.0 mm - -
Hour Temp Dew Point Humidity Winds Wind Gusts Pressure Precip Precip Rate Daily Precip Total
12:25 AM 85.6°F29.8°C 72.5°F22.5°C 65% 2.3 mph SW3.7 kmh SW 3.8 mph6.1 kmh 29.81 in1009.5 mb 0.00 in0.0 mm 0.00 in0.0 mm 0.00 in0.0 mm
12:55 AM 85.3°F29.6°C 72.6°F22.6°C 66% 2.8 mph SW4.5 kmh SW 4.3 mph6.9 kmh 29.79 in1008.8 mb 0.00 in0.0 mm 0.00 in0.0 mm 0.00 in0.0 mm
01:26 AM 84.7°F29.3°C 72.6°F22.6°C 67% Calm Calm 1.8 mph2.9 kmh 29.79 in1008.8 mb 0.00 in0.0 mm 0.00 in0.0 mm 0.00 in0.0 mm
01:56 AM 83.8°F28.8°C 72.6°F22.6°C 69% 2.6 mph SW4.2 kmh SW 4.7 mph7.6 kmh 29.78 in1008.5 mb 0.00 in0.0 mm 0.00 in0.0 mm 0.00 in0.0 mm
02:26 AM 83.7°F28.7°C 72.4°F22.4°C 69% 2.4 mph SW3.9 kmh SW 4.3 mph6.9 kmh 29.77 in1008.1 mb 0.00 in0.0 mm 0.00 in0.0 mm 0.00 in0.0 mm
02:56 AM 83.8°F28.8°C 73.0°F22.8°C 70% Calm Calm 4.7 mph7.6 kmh 29.76 in1007.8 mb 0.00 in0.0 mm 0.00 in0.0 mm 0.00 in0.0 mm
03:26 AM 83.3°F28.5°C 72.9°F22.7°C 71% Calm Calm -- 29.75 in1007.5 mb 0.00 in0.0 mm 0.00 in0.0 mm 0.00 in0.0 mm
03:56 AM 82.2°F27.9°C 72.2°F22.3°C 72% Calm Calm -- 29.75 in1007.5 mb 0.00 in0.0 mm 0.00 in0.0 mm 0.00 in0.0 mm
04:26 AM 82.0°F27.8°C 72.1°F22.3°C 72% Calm Calm -- 29.75 in1007.5 mb 0.00 in0.0 mm 0.00 in0.0 mm 0.00 in0.0 mm
04:56 AM 81.5°F27.5°C 72.4°F22.4°C 74% Calm Calm -- 29.76 in1007.8 mb 0.00 in0.0 mm 0.00 in0.0 mm 0.00 in0.0 mm
05:26 AM 81.3°F27.4°C 73.0°F22.8°C 76% Calm Calm -- 29.76 in1007.8 mb 0.00 in0.0 mm 0.00 in0.0 mm 0.00 in0.0 mm
05:57 AM 81.3°F27.4°C 73.8°F23.2°C 78% Calm Calm -- 29.78 in1008.5 mb 0.00 in0.0 mm 0.00 in0.0 mm 0.00 in0.0 mm
06:27 AM 81.3°F27.4°C 73.8°F23.2°C 78% Calm Calm -- 29.79 in1008.8 mb 0.00 in0.0 mm 0.00 in0.0 mm 0.00 in0.0 mm
06:57 AM 81.5°F27.5°C 74.0°F23.3°C 78% Calm Calm -- 29.80 in1009.1 mb 0.00 in0.0 mm 0.00 in0.0 mm 0.00 in0.0 mm
07:27 AM 81.9°F27.7°C 74.0°F23.3°C 77% Calm Calm -- 29.82 in1009.8 mb 0.00 in0.0 mm 0.00 in0.0 mm 0.00 in0.0 mm
07:57 AM 82.8°F28.2°C 74.0°F23.3°C 75% 2.7 mph NE4.3 kmh NE 5.4 mph8.7 kmh 29.83 in1010.2 mb 0.00 in0.0 mm 0.00 in0.0 mm 0.00 in0.0 mm
08:27 AM 84.0°F28.9°C 74.0°F23.3°C 72% 3.0 mph NE4.8 kmh NE 8.5 mph13.7 kmh 29.84 in1010.5 mb 0.00 in0.0 mm 0.00 in0.0 mm 0.00 in0.0 mm
08:57 AM 85.3°F29.6°C 73.5°F23.1°C 68% 2.2 mph E3.5 kmh E 3.8 mph6.1 kmh 29.84 in1010.5 mb 0.00 in0.0 mm 0.00 in0.0 mm 0.00 in0.0 mm
09:27 AM 86.2°F30.1°C 73.5°F23.1°C 66% 1.9 mph ESE3.1 kmh ESE 4.5 mph7.2 kmh 29.85 in1010.8 mb 0.00 in0.0 mm 0.00 in0.0 mm 0.00 in0.0 mm
09:57 AM 87.1°F30.6°C 73.4°F23.0°C 64% 2.2 mph E3.5 kmh E 6.7 mph10.8 kmh 29.84 in1010.5 mb 0.00 in0.0 mm 0.00 in0.0 mm 0.00 in0.0 mm
10:27 AM 87.8°F31.0°C 73.7°F23.2°C 63% 4.1 mph ESE6.6 kmh ESE 6.5 mph10.5 kmh 29.84 in1010.5 mb 0.00 in0.0 mm 0.00 in0.0 mm 0.00 in0.0 mm
10:57 AM 88.5°F31.4°C 73.9°F23.3°C 62% 2.1 mph ESE3.4 kmh ESE 4.9 mph7.9 kmh 29.83 in1010.2 mb 0.00 in0.0 mm 0.00 in0.0 mm 0.00 in0.0 mm
11:27 AM 89.4°F31.9°C 74.2°F23.4°C 61% 3.2 mph SE5.1 kmh SE 6.5 mph10.5 kmh 29.82 in1009.8 mb 0.00 in0.0 mm 0.00 in0.0 mm 0.00 in0.0 mm
11:57 AM 90.5°F32.5°C 74.2°F23.4°C 59% 2.6 mph ESE4.2 kmh ESE 9.6 mph15.4 kmh 29.81 in1009.5 mb 0.00 in0.0 mm 0.00 in0.0 mm 0.00 in0.0 mm
12:27 PM 89.8°F32.1°C 74.6°F23.7°C 61% 7.6 mph W12.2 kmh W 17.2 mph27.7 kmh 29.82 in1009.8 mb 0.00 in0.0 mm 0.00 in0.0 mm 0.00 in0.0 mm
12:57 PM 86.5°F30.3°C 75.2°F24.0°C 69% 2.0 mph NNE3.2 kmh NNE 6.0 mph9.7 kmh 29.81 in1009.5 mb 0.12 in3.0 mm 0.24 in6.1 mm 0.12 in3.0 mm
01:28 PM 85.6°F29.8°C 75.2°F24.0°C 71% 2.1 mph SSW3.4 kmh SSW 3.1 mph5.0 kmh 29.79 in1008.8 mb 0.06 in1.5 mm 0.00 in0.0 mm 0.12 in3.0 mm
01:58 PM 84.9°F29.4°C 74.9°F23.8°C 72% 1.8 mph W2.9 kmh W 3.1 mph5.0 kmh 29.78 in1008.5 mb 0.00 in0.0 mm 0.00 in0.0 mm 0.12 in3.0 mm
02:30 PM 86.5°F30.3°C 76.9°F24.9°C 73% 2.3 mph NW3.7 kmh NW 3.6 mph5.8 kmh 29.76 in1007.8 mb 0.00 in0.0 mm 0.00 in0.0 mm 0.12 in3.0 mm
03:00 PM 88.0°F31.1°C 75.6°F24.2°C 67% 3.0 mph SW4.8 kmh SW 6.3 mph10.1 kmh 29.74 in1007.1 mb 0.00 in0.0 mm 0.00 in0.0 mm 0.12 in3.0 mm
03:30 PM 90.0°F32.2°C 74.7°F23.7°C 61% 3.4 mph SW5.5 kmh SW 5.1 mph8.2 kmh 29.73 in1006.8 mb 0.00 in0.0 mm 0.00 in0.0 mm 0.12 in3.0 mm
04:00 PM 91.0°F32.8°C 75.2°F24.0°C 60% 3.0 mph WSW4.8 kmh WSW 6.9 mph11.1 kmh 29.73 in1006.8 mb 0.00 in0.0 mm 0.00 in0.0 mm 0.12 in3.0 mm
04:31 PM 91.9°F33.3°C 75.0°F23.9°C 58% 1.8 mph WSW2.9 kmh WSW 6.9 mph11.1 kmh 29.73 in1006.8 mb 0.00 in0.0 mm 0.00 in0.0 mm 0.12 in3.0 mm
05:01 PM 91.9°F33.3°C 74.5°F23.6°C 57% 2.7 mph W4.3 kmh W 5.1 mph8.2 kmh 29.72 in1006.4 mb 0.00 in0.0 mm 0.00 in0.0 mm 0.12 in3.0 mm
05:31 PM 91.9°F33.3°C 74.5°F23.6°C 57% 2.1 mph SW3.4 kmh SW 3.6 mph5.8 kmh 29.72 in1006.4 mb 0.00 in0.0 mm 0.00 in0.0 mm 0.12 in3.0 mm
06:01 PM 91.8°F33.2°C 73.7°F23.2°C 56% 2.2 mph WNW3.5 kmh WNW 4.5 mph7.2 kmh 29.72 in1006.4 mb 0.00 in0.0 mm 0.00 in0.0 mm 0.12 in3.0 mm
06:31 PM 91.6°F33.1°C 73.6°F23.1°C 56% Calm Calm 1.3 mph2.1 kmh 29.73 in1006.8 mb 0.00 in0.0 mm 0.00 in0.0 mm 0.12 in3.0 mm
07:02 PM 91.0°F32.8°C 74.2°F23.4°C 58% Calm Calm -- 29.74 in1007.1 mb 0.00 in0.0 mm 0.00 in0.0 mm 0.12 in3.0 mm
07:31 PM 90.3°F32.4°C 75.1°F23.9°C 61% 2.0 mph SW3.2 kmh SW 2.2 mph3.5 kmh 29.74 in1007.1 mb 0.00 in0.0 mm 0.00 in0.0 mm 0.12 in3.0 mm
08:02 PM 88.9°F31.6°C 75.1°F23.9°C 64% Calm Calm -- 29.76 in1007.8 mb 0.00 in0.0 mm 0.00 in0.0 mm 0.12 in3.0 mm
08:32 PM 88.2°F31.2°C 74.4°F23.6°C 64% 2.1 mph SW3.4 kmh SW 4.0 mph6.4 kmh 29.77 in1008.1 mb 0.00 in0.0 mm 0.00 in0.0 mm 0.12 in3.0 mm
09:02 PM 88.3°F31.3°C 75.1°F23.9°C 65% 4.2 mph SW6.8 kmh SW 8.7 mph14.0 kmh 29.78 in1008.5 mb 0.00 in0.0 mm 0.00 in0.0 mm 0.12 in3.0 mm
09:32 PM 88.0°F31.1°C 75.2°F24.0°C 66% 2.1 mph SW3.4 kmh SW 6.9 mph11.1 kmh 29.79 in1008.8 mb 0.00 in0.0 mm 0.00 in0.0 mm 0.12 in3.0 mm
10:02 PM 87.4°F30.8°C 74.2°F23.4°C 65% Calm Calm 3.6 mph5.8 kmh 29.80 in1009.1 mb 0.00 in0.0 mm 0.00 in0.0 mm 0.12 in3.0 mm
10:32 PM 86.7°F30.4°C 73.5°F23.1°C 65% 3.2 mph SW5.1 kmh SW 7.4 mph11.9 kmh 29.81 in1009.5 mb 0.00 in0.0 mm 0.00 in0.0 mm 0.12 in3.0 mm
11:02 PM 86.5°F30.3°C 73.4°F23.0°C 65% 3.3 mph SW5.3 kmh SW 6.7 mph10.8 kmh 29.81 in1009.5 mb 0.00 in0.0 mm 0.00 in0.0 mm 0.12 in3.0 mm
11:32 PM 86.4°F30.2°C 73.2°F22.9°C 65% Calm Calm 2.2 mph3.5 kmh 29.83 in1010.2 mb 0.00 in0.0 mm 0.00 in0.0 mm 0.12 in3.0 mm